createdAt,value
2018-03-03T00:00:57.986Z,22.23
2018-03-03T00:03:25.465Z,19.90
2018-03-03T00:05:52.935Z,22.80
2018-03-03T00:08:20.425Z,20.73
2018-03-03T00:10:47.956Z,18.95
2018-03-03T00:13:16.196Z,19.75
2018-03-03T00:15:43.684Z,20.25
2018-03-03T00:18:11.192Z,23.80
2018-03-03T00:20:38.657Z,20.90
2018-03-03T00:23:06.133Z,19.90
2018-03-03T00:25:33.612Z,18.95
2018-03-03T00:28:01.196Z,20.58
2018-03-03T00:30:29.437Z,21.87
2018-03-03T00:32:56.931Z,20.88
2018-03-03T00:35:24.401Z,21.37
2018-03-03T00:37:51.925Z,20.50
2018-03-03T00:40:20.175Z,21.12
2018-03-03T00:42:47.656Z,20.27
2018-03-03T00:45:15.932Z,21.60
2018-03-03T00:47:43.397Z,20.52
2018-03-03T00:50:11.669Z,20.37
2018-03-03T00:52:39.901Z,18.25
2018-03-03T00:55:07.396Z,19.02
2018-03-03T00:57:34.879Z,19.73
2018-03-03T01:00:02.412Z,19.95
2018-03-03T01:02:29.905Z,18.58
2018-03-03T01:04:57.429Z,20.33
2018-03-03T01:07:24.920Z,21.05
2018-03-03T01:09:52.389Z,21.48
2018-03-03T01:12:19.885Z,20.98
2018-03-03T01:14:47.361Z,19.70
2018-03-03T01:17:15.600Z,20.50
2018-03-03T01:19:43.069Z,20.90
2018-03-03T01:22:10.548Z,19.60
2018-03-03T01:24:38.021Z,21.00
2018-03-03T01:27:06.284Z,20.83
2018-03-03T01:29:34.527Z,19.67
2018-03-03T01:32:02.029Z,19.60
2018-03-03T01:34:30.289Z,19.77
2018-03-03T01:36:58.561Z,18.70
2018-03-03T01:39:26.115Z,19.50
2018-03-03T01:41:53.619Z,21.80
2018-03-03T01:44:21.146Z,18.90
2018-03-03T01:46:49.381Z,20.52
2018-03-03T01:49:16.869Z,19.00
2018-03-03T01:51:44.345Z,20.10
2018-03-03T01:54:12.596Z,22.75
2018-03-03T01:56:40.089Z,19.90
2018-03-03T01:59:07.561Z,21.27
2018-03-03T02:01:35.034Z,16.23
2018-03-03T02:04:02.511Z,19.80
2018-03-03T02:06:29.978Z,19.02
2018-03-03T02:08:57.449Z,19.87
2018-03-03T02:11:25.759Z,19.73
2018-03-03T02:13:53.219Z,19.55
2018-03-03T02:16:20.694Z,19.98
2018-03-03T02:18:48.160Z,18.62
2018-03-03T02:21:15.636Z,19.17
2018-03-03T02:23:43.124Z,18.67
2018-03-03T02:26:10.604Z,20.12
2018-03-03T02:28:38.064Z,20.25
2018-03-03T02:31:05.550Z,18.92
2018-03-03T02:33:33.148Z,19.12
2018-03-03T02:36:01.409Z,19.48
2018-03-03T02:38:29.650Z,17.27
2018-03-03T02:40:57.129Z,20.33
2018-03-03T02:43:25.294Z,19.48
2018-03-03T02:45:52.869Z,19.25
2018-03-03T02:48:20.412Z,20.20
2018-03-03T02:50:47.888Z,18.05
2018-03-03T02:53:16.149Z,16.73
2018-03-03T02:55:43.617Z,18.95
2018-03-03T02:58:11.171Z,19.98
2018-03-03T03:00:38.733Z,19.62
2018-03-03T03:03:06.224Z,18.60
2018-03-03T03:05:33.697Z,18.80
2018-03-03T03:08:01.160Z,19.20
2018-03-03T03:10:28.624Z,19.23
2018-03-03T03:12:56.116Z,18.85
2018-03-03T03:15:23.672Z,20.15
2018-03-03T03:17:51.173Z,18.50
2018-03-03T03:20:18.636Z,18.05
2018-03-03T03:22:46.105Z,19.25
2018-03-03T03:25:13.652Z,18.87
2018-03-03T03:27:41.144Z,18.85
2018-03-03T03:30:08.615Z,21.00
2018-03-03T03:32:36.180Z,16.33
2018-03-03T03:35:03.739Z,19.00
2018-03-03T03:37:31.204Z,18.10
2018-03-03T03:39:59.454Z,17.37
2018-03-03T03:42:26.935Z,18.12
2018-03-03T03:44:54.495Z,16.35
2018-03-03T03:47:21.980Z,18.77
2018-03-03T03:49:49.652Z,18.10
2018-03-03T03:52:17.123Z,17.98
2018-03-03T03:54:44.607Z,18.77
2018-03-03T03:57:12.281Z,17.33
2018-03-03T03:59:39.755Z,17.65
2018-03-03T04:02:07.993Z,16.73
2018-03-03T04:04:35.556Z,17.83
2018-03-03T04:07:03.035Z,17.33
2018-03-03T04:09:30.516Z,19.75
2018-03-03T04:11:58.004Z,20.05
2018-03-03T04:14:25.484Z,17.23
2018-03-03T04:16:53.061Z,17.90
2018-03-03T04:19:20.606Z,18.92
2018-03-03T04:21:48.082Z,19.10
2018-03-03T04:24:16.332Z,17.62
2018-03-03T04:26:43.800Z,18.40
2018-03-03T04:29:11.293Z,16.73
2018-03-03T04:31:38.752Z,16.85
2018-03-03T04:34:06.278Z,19.25
2018-03-03T04:36:34.528Z,17.62
2018-03-03T04:39:02.016Z,17.62
2018-03-03T04:41:29.498Z,17.15
2018-03-03T04:43:57.002Z,17.50
2018-03-03T04:46:24.468Z,18.92
2018-03-03T04:48:51.953Z,17.73
2018-03-03T04:51:20.180Z,18.30
2018-03-03T04:53:47.652Z,18.83
2018-03-03T04:56:15.124Z,20.20
2018-03-03T04:58:44.509Z,18.62
2018-03-03T05:04:28.132Z,17.40
2018-03-03T05:06:57.388Z,17.85
2018-03-03T05:09:25.649Z,18.10
2018-03-03T05:11:53.119Z,18.87
2018-03-03T05:14:27.087Z,17.83
2018-03-03T05:20:05.952Z,18.42
2018-03-03T05:22:39.122Z,18.90
2018-03-03T05:25:12.189Z,19.40
2018-03-03T05:27:45.487Z,18.50
2018-03-03T05:30:18.717Z,18.25
2018-03-03T05:32:51.960Z,18.15
2018-03-03T05:35:23.395Z,20.17
2018-03-03T05:37:57.332Z,17.77
2018-03-03T05:40:28.311Z,16.92
2018-03-03T05:42:58.580Z,18.62
2018-03-03T05:45:31.652Z,17.00
2018-03-03T05:48:14.764Z,18.27
2018-03-03T05:50:46.810Z,17.65
2018-03-03T05:53:33.070Z,16.92
2018-03-03T05:56:00.524Z,17.45
2018-03-03T05:58:33.637Z,17.45
2018-03-03T06:01:06.904Z,18.30
2018-03-03T06:03:34.411Z,17.33
2018-03-03T06:09:26.884Z,16.87
2018-03-03T06:11:55.127Z,19.33
2018-03-03T06:14:22.599Z,17.05
2018-03-03T06:16:50.072Z,16.90
2018-03-03T06:19:18.315Z,18.02
2018-03-03T06:21:45.767Z,19.52
2018-03-03T06:24:13.257Z,18.35
2018-03-03T06:26:40.714Z,18.30
2018-03-03T06:29:08.972Z,16.98
2018-03-03T06:31:36.448Z,17.30
2018-03-03T06:34:04.687Z,17.08
2018-03-03T06:36:32.155Z,19.55
2018-03-03T06:38:59.636Z,18.58
2018-03-03T06:41:27.882Z,18.30
2018-03-03T06:43:55.344Z,18.52
2018-03-03T06:46:22.813Z,17.12
2018-03-03T06:48:50.364Z,19.12
2018-03-03T06:51:17.868Z,18.15
2018-03-03T06:53:45.402Z,18.27
2018-03-03T06:56:12.838Z,18.02
2018-03-03T06:58:40.303Z,16.92
2018-03-03T07:01:07.847Z,19.12
2018-03-03T07:03:35.407Z,20.12
2018-03-03T07:06:02.864Z,19.02
2018-03-03T07:08:30.346Z,20.20
2018-03-03T07:10:58.596Z,18.48
2018-03-03T07:13:26.076Z,18.08
2018-03-03T07:15:54.309Z,20.27
2018-03-03T07:18:21.787Z,18.87
2018-03-03T07:20:49.265Z,18.62
2018-03-03T07:23:17.624Z,19.00
2018-03-03T07:25:45.128Z,20.65
2018-03-03T07:28:12.595Z,19.00
2018-03-03T07:30:40.092Z,17.73
2018-03-03T07:33:08.341Z,19.65
2018-03-03T07:35:35.889Z,20.00
2018-03-03T07:38:04.100Z,21.83
2018-03-03T07:40:31.560Z,19.50
2018-03-03T07:42:59.178Z,19.83
2018-03-03T07:45:26.636Z,22.25
2018-03-03T07:47:54.148Z,20.05
2018-03-03T07:50:22.380Z,22.58
2018-03-03T07:52:49.873Z,20.73
2018-03-03T07:55:17.481Z,21.67
2018-03-03T07:57:44.947Z,20.00
2018-03-03T08:00:12.437Z,21.05
2018-03-03T08:02:39.960Z,20.33
2018-03-03T08:05:08.152Z,21.20
2018-03-03T08:07:35.624Z,23.15
2018-03-03T08:10:03.099Z,20.95
2018-03-03T08:12:30.640Z,22.23
2018-03-03T08:14:58.114Z,23.62
2018-03-03T08:17:26.348Z,21.45
2018-03-03T08:19:53.834Z,19.50
2018-03-03T08:22:21.313Z,20.10
2018-03-03T08:24:49.564Z,20.48
2018-03-03T08:27:17.131Z,19.65
2018-03-03T08:29:44.593Z,22.58
2018-03-03T08:32:12.060Z,21.02
2018-03-03T08:34:40.340Z,20.52
2018-03-03T08:37:08.566Z,22.48
2018-03-03T08:39:36.036Z,22.75
2018-03-03T08:42:03.607Z,22.73
2018-03-03T08:44:31.064Z,20.98
2018-03-03T08:46:58.540Z,20.37
2018-03-03T08:49:26.770Z,19.50
2018-03-03T08:51:54.242Z,21.17
2018-03-03T08:54:21.719Z,20.67
2018-03-03T08:56:49.961Z,21.10
2018-03-03T08:59:17.561Z,20.02
2018-03-03T09:01:45.796Z,20.88
2018-03-03T09:04:13.276Z,18.70
2018-03-03T09:06:40.754Z,21.37
2018-03-03T09:09:08.995Z,17.90
2018-03-03T09:11:36.467Z,17.77
2018-03-03T09:14:03.925Z,15.75
2018-03-03T09:16:31.401Z,14.90
2018-03-03T09:18:59.632Z,17.27
2018-03-03T09:21:27.108Z,16.35
2018-03-03T09:23:54.568Z,18.10
2018-03-03T09:26:22.067Z,16.02
2018-03-03T09:28:49.530Z,17.98
2018-03-03T09:31:17.002Z,17.83
2018-03-03T09:33:44.482Z,18.20
2018-03-03T09:36:11.948Z,18.17
2018-03-03T09:38:39.436Z,17.25
2018-03-03T09:41:07.682Z,16.33
2018-03-03T09:43:35.160Z,16.45
2018-03-03T09:46:03.409Z,16.90
2018-03-03T09:48:30.868Z,18.05
2018-03-03T09:50:58.352Z,16.23
2018-03-03T09:53:25.836Z,18.58
2018-03-03T09:55:53.365Z,17.37
2018-03-03T09:58:22.364Z,17.33
2018-03-03T10:00:50.663Z,18.95
2018-03-03T10:03:18.119Z,17.27
2018-03-03T10:05:45.589Z,17.52
2018-03-03T10:08:13.082Z,16.35
2018-03-03T10:10:40.568Z,15.75
2018-03-03T10:13:08.799Z,17.90
2018-03-03T10:15:36.265Z,16.90
2018-03-03T10:18:03.729Z,16.83
2018-03-03T10:20:32.697Z,15.82
2018-03-03T10:23:00.231Z,14.55
2018-03-03T10:25:27.996Z,15.10
2018-03-03T10:27:55.447Z,14.95
2018-03-03T10:30:22.965Z,16.40
2018-03-03T10:32:50.417Z,16.70
2018-03-03T10:35:17.905Z,16.52
2018-03-03T10:37:46.148Z,15.38
2018-03-03T10:40:13.658Z,17.00
2018-03-03T10:42:41.166Z,17.23
2018-03-03T10:45:08.722Z,16.00
2018-03-03T10:47:36.307Z,16.35
2018-03-03T10:50:04.554Z,17.65
2018-03-03T10:52:32.133Z,16.52
2018-03-03T10:55:00.348Z,16.33
2018-03-03T10:57:27.899Z,16.87
2018-03-03T10:59:55.409Z,17.50
2018-03-03T11:02:22.968Z,17.12
2018-03-03T11:04:51.196Z,18.50
2018-03-03T11:07:18.696Z,15.82
2018-03-03T11:09:46.161Z,19.42
2018-03-03T11:12:14.400Z,18.27
2018-03-03T11:14:41.859Z,16.20
2018-03-03T11:17:09.343Z,17.62
2018-03-03T11:19:36.838Z,16.92
2018-03-03T11:22:04.298Z,18.17
2018-03-03T11:24:31.765Z,18.27
2018-03-03T11:26:59.221Z,17.87
2018-03-03T11:29:26.732Z,17.37
2018-03-03T11:31:55.006Z,17.80
2018-03-03T11:34:22.491Z,17.35
2018-03-03T11:36:49.946Z,24.10
2018-03-03T11:39:17.409Z,22.73
2018-03-03T11:41:44.873Z,18.67
2018-03-03T11:44:12.405Z,17.87
2018-03-03T11:46:40.657Z,16.77
2018-03-03T11:49:08.119Z,17.37
2018-03-03T11:51:35.675Z,17.08
2018-03-03T11:54:03.236Z,19.02
2018-03-03T11:56:30.704Z,16.60
2018-03-03T11:58:58.984Z,16.33
2018-03-03T12:01:27.247Z,17.35
2018-03-03T12:03:54.847Z,17.45
2018-03-03T12:06:22.358Z,16.15
2018-03-03T12:08:49.820Z,15.60
2018-03-03T12:11:17.296Z,18.35
2018-03-03T12:13:45.534Z,18.42
2018-03-03T12:16:13.006Z,16.75
2018-03-03T12:18:40.472Z,18.35
2018-03-03T12:21:08.024Z,18.05
2018-03-03T12:23:35.567Z,17.67
2018-03-03T12:26:03.033Z,16.95
2018-03-03T12:28:30.499Z,16.48
2018-03-03T12:30:57.971Z,17.60
2018-03-03T12:33:26.195Z,16.73
2018-03-03T12:35:53.740Z,17.05
2018-03-03T12:38:21.200Z,15.95
2018-03-03T12:40:48.666Z,15.98
2018-03-03T12:43:16.140Z,15.05
2018-03-03T12:45:43.733Z,17.70
2018-03-03T12:48:11.173Z,17.23
2018-03-03T12:50:38.633Z,17.58
2018-03-03T12:53:06.113Z,16.60
2018-03-03T12:55:34.332Z,16.60
2018-03-03T12:58:01.914Z,14.63
2018-03-03T13:00:29.376Z,15.60
2018-03-03T13:02:56.849Z,16.45
2018-03-03T13:05:25.076Z,16.05
2018-03-03T13:07:52.615Z,18.02
2018-03-03T13:10:20.078Z,17.10
2018-03-03T13:12:47.606Z,15.85
2018-03-03T13:15:15.037Z,16.42
2018-03-03T13:17:42.491Z,17.05
2018-03-03T13:20:09.958Z,17.58
2018-03-03T13:22:38.194Z,17.25
2018-03-03T13:25:05.658Z,17.77
2018-03-03T13:27:33.171Z,16.30
2018-03-03T13:30:00.641Z,17.98
2018-03-03T13:32:28.107Z,17.75
2018-03-03T13:34:55.612Z,17.27
2018-03-03T13:37:23.074Z,16.60
2018-03-03T13:39:50.674Z,15.40
2018-03-03T13:42:18.208Z,15.65
2018-03-03T13:44:47.295Z,18.70
2018-03-03T13:47:15.511Z,19.00
2018-03-03T13:49:43.063Z,16.00
2018-03-03T13:52:10.516Z,16.10
2018-03-03T13:54:37.995Z,16.15
2018-03-03T13:57:05.492Z,16.52
2018-03-03T13:59:32.962Z,15.15
2018-03-03T14:02:01.188Z,15.77
2018-03-03T14:04:28.648Z,16.42
2018-03-03T14:06:56.144Z,16.58
2018-03-03T14:09:24.376Z,16.08
2018-03-03T14:11:51.863Z,16.23
2018-03-03T14:14:19.321Z,16.23
2018-03-03T14:16:46.971Z,17.45
2018-03-03T14:19:14.588Z,16.75
2018-03-03T14:21:42.053Z,17.40
2018-03-03T14:24:09.513Z,15.48
2018-03-03T14:26:36.984Z,16.58
2018-03-03T14:29:04.443Z,16.67
2018-03-03T14:31:31.921Z,16.92
2018-03-03T14:33:59.480Z,15.45
2018-03-03T14:36:26.992Z,15.45
2018-03-03T14:38:54.455Z,17.73
2018-03-03T14:41:21.919Z,15.45
2018-03-03T14:43:49.395Z,16.15
2018-03-03T14:46:16.856Z,17.23
2018-03-03T14:48:44.321Z,15.98
2018-03-03T14:51:12.596Z,16.30
2018-03-03T14:53:40.074Z,16.45
2018-03-03T14:56:08.380Z,14.60
2018-03-03T14:58:35.888Z,16.58
2018-03-03T15:01:03.496Z,18.50
2018-03-03T15:03:31.007Z,16.35
2018-03-03T15:05:58.463Z,15.38
2018-03-03T15:08:25.949Z,17.98
2018-03-03T15:10:53.424Z,16.65
2018-03-03T15:13:20.889Z,16.90
2018-03-03T15:15:48.363Z,16.00
2018-03-03T15:18:15.823Z,18.65
2018-03-03T15:20:43.296Z,16.98
2018-03-03T15:23:10.808Z,18.00
2018-03-03T15:25:38.269Z,16.70
2018-03-03T15:28:05.732Z,16.75
2018-03-03T15:30:33.199Z,18.00
2018-03-03T15:33:00.693Z,17.73
2018-03-03T15:35:28.128Z,18.70
2018-03-03T15:37:55.595Z,17.95
2018-03-03T15:40:23.156Z,17.80
2018-03-03T15:42:50.703Z,17.40
2018-03-03T15:45:18.192Z,18.42
2018-03-03T15:47:46.425Z,19.70
2018-03-03T15:50:13.910Z,18.62
2018-03-03T15:52:41.371Z,17.85
2018-03-03T15:55:09.588Z,17.98
2018-03-03T15:57:37.079Z,18.08
2018-03-03T16:00:04.614Z,18.02
2018-03-03T16:02:32.089Z,17.77
2018-03-03T16:04:59.562Z,17.33
2018-03-03T16:07:27.025Z,19.55
2018-03-03T16:09:54.589Z,16.52
2018-03-03T16:12:22.193Z,19.37
2018-03-03T16:14:50.386Z,17.25
2018-03-03T16:17:17.880Z,19.17
2018-03-03T16:19:45.338Z,16.37
2018-03-03T16:22:12.815Z,16.30
2018-03-03T16:24:41.129Z,16.73
2018-03-03T16:27:08.601Z,16.75
2018-03-03T16:29:36.061Z,16.35
2018-03-03T16:32:03.572Z,15.48
2018-03-03T16:34:31.050Z,16.08
2018-03-03T16:36:58.521Z,15.60
2018-03-03T16:39:25.984Z,16.83
2018-03-03T16:41:53.566Z,17.45
2018-03-03T16:44:21.033Z,17.75
2018-03-03T16:46:49.281Z,17.15
2018-03-03T16:49:16.742Z,17.77
2018-03-03T16:51:44.241Z,16.85
2018-03-03T16:54:11.756Z,15.73
2018-03-03T16:56:39.224Z,17.65
2018-03-03T16:59:06.705Z,17.62
2018-03-03T17:01:34.936Z,18.48
2018-03-03T17:04:02.407Z,16.25
2018-03-03T17:06:30.656Z,17.92
2018-03-03T17:08:58.147Z,15.82
2018-03-03T17:11:25.758Z,18.08
2018-03-03T17:13:53.265Z,15.27
2018-03-03T17:16:20.823Z,17.12
2018-03-03T17:18:48.398Z,17.73
2018-03-03T17:21:16.619Z,17.77
2018-03-03T17:23:44.105Z,17.60
2018-03-03T17:26:12.346Z,14.10
2018-03-03T17:28:39.847Z,17.25
2018-03-03T17:31:07.318Z,17.17
2018-03-03T17:33:35.568Z,18.15
2018-03-03T17:36:03.809Z,16.83
2018-03-03T17:38:31.276Z,18.83
2018-03-03T17:40:58.735Z,17.17
2018-03-03T17:43:26.225Z,17.60
2018-03-03T17:45:53.871Z,17.75
2018-03-03T17:48:21.344Z,17.80
2018-03-03T17:50:50.360Z,18.08
2018-03-03T17:53:17.829Z,18.20
2018-03-03T17:55:45.397Z,17.52
2018-03-03T17:58:12.864Z,16.48
2018-03-03T18:00:40.331Z,18.50
2018-03-03T18:03:07.792Z,19.37
2018-03-03T18:05:35.335Z,15.30
2018-03-03T18:08:02.799Z,16.80
2018-03-03T18:10:30.272Z,16.90
2018-03-03T18:12:57.732Z,18.25
2018-03-03T18:15:25.210Z,18.12
2018-03-03T18:17:52.676Z,17.73
2018-03-03T18:20:20.939Z,18.37
2018-03-03T18:22:49.292Z,17.35
2018-03-03T18:25:16.889Z,18.50
2018-03-03T18:27:45.133Z,16.35
2018-03-03T18:30:12.619Z,16.35
2018-03-03T18:32:40.897Z,18.48
2018-03-03T18:35:09.236Z,17.60
2018-03-03T18:37:36.699Z,18.58
2018-03-03T18:40:04.156Z,17.00
2018-03-03T18:42:31.652Z,16.73
2018-03-03T18:44:59.883Z,17.52
2018-03-03T18:47:27.475Z,19.50
2018-03-03T18:49:55.723Z,17.33
2018-03-03T18:52:24.704Z,17.35
2018-03-03T18:54:52.180Z,17.52
2018-03-03T18:57:21.168Z,17.15
2018-03-03T18:59:48.650Z,17.85
2018-03-03T19:02:16.892Z,17.37
2018-03-03T19:04:44.358Z,18.75
2018-03-03T19:07:11.821Z,17.87
2018-03-03T19:09:43.468Z,17.83
2018-03-03T19:12:11.032Z,17.70
2018-03-03T19:14:38.500Z,18.33
2018-03-03T19:17:05.970Z,19.65
2018-03-03T19:19:34.209Z,17.52
2018-03-03T19:22:01.674Z,18.05
2018-03-03T19:24:29.190Z,17.55
2018-03-03T19:26:56.664Z,18.10
2018-03-03T19:29:24.205Z,19.42
2018-03-03T19:31:51.678Z,17.50
2018-03-03T19:34:19.144Z,17.92
2018-03-03T19:36:46.604Z,17.98
2018-03-03T19:39:14.080Z,16.52
2018-03-03T19:41:41.566Z,17.20
2018-03-03T19:44:09.796Z,18.27
2018-03-03T19:46:37.262Z,19.90
2018-03-03T19:49:04.860Z,18.98
2018-03-03T19:51:32.337Z,17.30
2018-03-03T19:53:59.841Z,17.35
2018-03-03T19:56:27.325Z,18.30
2018-03-03T19:58:55.553Z,18.50
2018-03-03T20:01:23.132Z,19.23
2018-03-03T20:03:50.696Z,18.42
2018-03-03T20:06:18.315Z,19.02
2018-03-03T20:08:45.785Z,18.75
2018-03-03T20:11:13.281Z,18.73
2018-03-03T20:13:40.756Z,17.65
2018-03-03T20:16:09.026Z,17.55
2018-03-03T20:18:37.257Z,18.02
2018-03-03T20:21:04.724Z,19.37
2018-03-03T20:23:32.192Z,19.65
2018-03-03T20:26:00.466Z,18.40
2018-03-03T20:28:27.939Z,20.05
2018-03-03T20:30:56.171Z,19.75
2018-03-03T20:33:23.653Z,19.30
2018-03-03T20:35:51.887Z,18.30
2018-03-03T20:38:19.361Z,19.98
2018-03-03T20:40:46.824Z,19.45
2018-03-03T20:43:14.431Z,20.12
2018-03-03T20:45:42.664Z,19.40
2018-03-03T20:48:10.138Z,19.27
2018-03-03T20:50:37.643Z,18.12
2018-03-03T20:53:05.127Z,18.60
2018-03-03T20:55:32.602Z,20.90
2018-03-03T20:58:00.072Z,21.67
2018-03-03T21:00:28.337Z,20.02
2018-03-03T21:02:55.860Z,19.15
2018-03-03T21:05:24.084Z,20.48
2018-03-03T21:07:52.338Z,20.52
2018-03-03T21:10:19.853Z,19.92
2018-03-03T21:12:47.323Z,19.50
2018-03-03T21:15:15.177Z,21.77
2018-03-03T21:17:42.656Z,18.33
2018-03-03T21:20:10.119Z,21.62
2018-03-03T21:22:37.588Z,20.40
2018-03-03T21:25:05.056Z,20.48
2018-03-03T21:27:33.291Z,20.67
2018-03-03T21:30:00.766Z,20.60
2018-03-03T21:32:28.323Z,21.20
2018-03-03T21:34:55.902Z,21.00
2018-03-03T21:37:24.154Z,21.50
2018-03-03T21:39:51.728Z,20.02
2018-03-03T21:42:19.295Z,21.08
2018-03-03T21:44:49.161Z,21.75
2018-03-03T21:47:16.637Z,21.02
2018-03-03T21:49:44.109Z,20.92
2018-03-03T21:52:11.577Z,20.67
2018-03-03T21:54:40.565Z,21.83
2018-03-03T21:57:08.053Z,20.75
2018-03-03T21:59:36.293Z,20.15
2018-03-03T22:02:03.758Z,23.25
2018-03-03T22:04:31.316Z,21.80
2018-03-03T22:06:59.557Z,20.27
2018-03-03T22:09:27.043Z,21.20
2018-03-03T22:11:54.510Z,21.27
2018-03-03T22:14:22.097Z,18.60
2018-03-03T22:16:49.573Z,20.65
2018-03-03T22:19:17.081Z,21.95
2018-03-03T22:21:46.067Z,20.65
2018-03-03T22:24:13.537Z,19.50
2018-03-03T22:26:41.776Z,19.33
2018-03-03T22:29:09.244Z,21.75
2018-03-03T22:31:36.703Z,22.27
2018-03-03T22:34:04.184Z,21.85
2018-03-03T22:36:32.434Z,20.85
2018-03-03T22:38:59.927Z,21.33
2018-03-03T22:41:28.182Z,21.25
2018-03-03T22:43:55.733Z,20.65
2018-03-03T22:46:23.199Z,20.50
2018-03-03T22:48:50.678Z,20.95
2018-03-03T22:51:18.926Z,20.50
2018-03-03T22:53:46.391Z,20.30
2018-03-03T22:56:14.644Z,22.95
2018-03-03T22:58:42.101Z,20.42
2018-03-03T23:01:09.569Z,20.65
2018-03-03T23:03:37.042Z,19.73
2018-03-03T23:06:04.521Z,22.90
2018-03-03T23:08:32.041Z,20.75
2018-03-03T23:11:01.022Z,21.05
2018-03-03T23:13:28.549Z,20.00
2018-03-03T23:15:56.017Z,18.75
2018-03-03T23:18:23.481Z,21.80
2018-03-03T23:20:50.944Z,21.25
2018-03-03T23:23:18.404Z,19.70
2018-03-03T23:25:45.873Z,20.50
2018-03-03T23:28:13.432Z,19.75
2018-03-03T23:30:40.988Z,20.58
2018-03-03T23:33:09.257Z,20.37
2018-03-03T23:35:36.714Z,20.10
2018-03-03T23:38:04.343Z,21.10
2018-03-03T23:40:31.811Z,19.70
2018-03-03T23:42:59.292Z,20.95
2018-03-03T23:45:26.858Z,20.23
2018-03-03T23:47:54.404Z,20.17
2018-03-03T23:50:21.870Z,20.73
2018-03-03T23:52:49.329Z,21.58
2018-03-03T23:55:16.803Z,23.35
2018-03-03T23:57:44.275Z,20.55
